Terminal Aerodrome Forecast
Issued by NWS Tuscon, AZ

Home | Current Version | Previous Version | Text Only | Print | Product List | Glossary On
Versions: 1 2 3 4 5 6 7 8 9 10 11 12 13 14 15 16 17
946
FTUS45 KTWC 191735
TAFTUS
TAF
KTUS 191735Z 1918/2018 21021G31KT P6SM SCT060
     FM192300 24019G29KT P6SM SCT060
     FM200500 25015KT P6SM SCT050
     FM200900 23007KT P6SM SCT050=

USA.gov is the U.S. government's official web portal to all federal, state and local government web resources and services.